Lomond, Canada
Current Conditions -  °F | °C
As of 3:00 AM on Thursday 23 Oct 2014 (Local Time) from CYDF Reporting Station
Haze Haze  
Wind Chill: 25°   Ceiling: Unl
Heat Index: 25°   Visibility: 0.75mi
Dew Point: 25°   Wind: 3mph
Humidity: 100%   Direction: 70°ENE
Pressure: 30.44"   Gusts: NA
Location:  49.45°N, 57.93°W
Report Text: CYDF 230500Z 07003KT 3/4SM BR SKC M04/M04 A3044 RMK FG6 SLP310
Loading
Personal Weather Stations






























Interactive Weather Map
Tropical Storm Tracking
New forecast layout! Learn more

10-Day Weather Forecast

Advertisements
Track Severe Weather on mobile